createdAt,value
2019-02-17T00:04:59.591Z,26.00
2019-02-17T00:10:06.390Z,28.43
2019-02-17T00:15:11.497Z,22.10
2019-02-17T00:20:16.234Z,21.83
2019-02-17T00:25:21.287Z,22.47
2019-02-17T00:30:26.272Z,28.03
2019-02-17T00:35:31.516Z,22.63
2019-02-17T00:40:36.331Z,20.67
2019-02-17T00:45:41.801Z,22.03
2019-02-17T00:50:46.533Z,35.43
2019-02-17T00:55:51.477Z,31.57
2019-02-17T01:00:57.895Z,23.77
2019-02-17T01:06:03.115Z,24.33
2019-02-17T01:11:07.965Z,27.40
2019-02-17T01:16:12.906Z,32.93
2019-02-17T01:21:17.655Z,21.97
2019-02-17T01:26:22.390Z,21.33
2019-02-17T01:31:27.442Z,19.20
2019-02-17T01:36:33.194Z,18.97
2019-02-17T01:41:37.952Z,18.13
2019-02-17T01:46:44.231Z,22.63
2019-02-17T01:51:48.867Z,30.20
2019-02-17T01:56:53.714Z,28.40
2019-02-17T02:01:58.661Z,20.43
2019-02-17T02:07:03.302Z,16.80
2019-02-17T02:12:08.045Z,14.30
2019-02-17T02:17:12.789Z,13.97
2019-02-17T02:22:17.425Z,14.57
2019-02-17T02:27:23.774Z,13.37
2019-02-17T02:32:30.170Z,14.10
2019-02-17T02:37:34.930Z,12.93
2019-02-17T02:42:44.274Z,13.57
2019-02-17T02:47:50.843Z,14.97
2019-02-17T02:52:55.195Z,13.43
2019-02-17T02:57:59.847Z,13.30
2019-02-17T03:03:06.472Z,15.67
2019-02-17T03:08:11.170Z,17.53
2019-02-17T03:13:15.909Z,26.77
2019-02-17T03:18:20.521Z,21.47
2019-02-17T03:23:26.057Z,18.77
2019-02-17T03:28:33.209Z,18.67
2019-02-17T03:33:39.284Z,19.40
2019-02-17T03:38:45.354Z,19.03
2019-02-17T03:43:50.705Z,19.07
2019-02-17T03:48:56.068Z,19.60
2019-02-17T03:54:01.938Z,20.67
2019-02-17T03:59:08.010Z,17.27
2019-02-17T04:04:12.648Z,16.43
2019-02-17T04:09:20.461Z,16.83
2019-02-17T04:14:28.178Z,15.87
2019-02-17T04:19:33.733Z,16.17
2019-02-17T04:24:38.314Z,15.07
2019-02-17T04:29:44.070Z,14.57
2019-02-17T04:34:48.789Z,15.33
2019-02-17T04:39:55.162Z,15.27
2019-02-17T04:45:00.891Z,18.00
2019-02-17T04:50:08.649Z,18.73
2019-02-17T04:55:13.281Z,14.97
2019-02-17T05:00:17.928Z,15.73
2019-02-17T05:05:22.560Z,30.53
2019-02-17T05:10:27.308Z,20.37
2019-02-17T05:15:32.967Z,20.83
2019-02-17T05:20:37.713Z,28.83
2019-02-17T05:25:42.965Z,48.33
2019-02-17T05:30:52.814Z,59.87
2019-02-17T05:35:54.195Z,43.67
2019-02-17T05:41:00.468Z,49.57
2019-02-17T05:46:05.312Z,47.83
2019-02-17T05:51:10.057Z,45.07
2019-02-17T05:56:14.800Z,55.40
2019-02-17T06:01:21.705Z,51.63
2019-02-17T06:06:30.662Z,44.50
2019-02-17T06:11:40.277Z,50.63
2019-02-17T06:16:45.444Z,48.20
2019-02-17T06:21:50.184Z,45.30
2019-02-17T06:26:56.066Z,49.43
2019-02-17T06:32:00.904Z,50.60
2019-02-17T06:37:08.304Z,44.33
2019-02-17T06:42:13.255Z,57.17
2019-02-17T06:47:21.068Z,46.37
2019-02-17T06:52:25.706Z,47.27
2019-02-17T06:57:33.459Z,41.00
2019-02-17T07:02:38.673Z,40.97
2019-02-17T07:07:43.654Z,58.77
2019-02-17T07:12:49.041Z,56.50
2019-02-17T07:17:56.486Z,46.57
2019-02-17T07:23:01.556Z,50.93
2019-02-17T07:28:08.130Z,69.70
2019-02-17T07:33:13.942Z,60.63
2019-02-17T07:38:18.934Z,65.73
2019-02-17T07:43:25.520Z,59.80
2019-02-17T07:48:30.401Z,56.07
2019-02-17T07:53:36.053Z,57.57
2019-02-17T07:58:41.193Z,61.43
2019-02-17T08:03:46.492Z,58.23
2019-02-17T08:08:52.792Z,68.57
2019-02-17T08:13:58.804Z,55.07
2019-02-17T08:19:04.792Z,59.30
2019-02-17T08:24:11.059Z,57.80
2019-02-17T08:29:15.786Z,56.50
2019-02-17T08:34:22.061Z,54.50
2019-02-17T08:39:27.626Z,54.40
2019-02-17T08:44:32.583Z,47.13
2019-02-17T08:49:37.424Z,45.13
2019-02-17T08:54:43.805Z,39.27
2019-02-17T08:59:51.114Z,39.73
2019-02-17T09:04:57.543Z,36.83
2019-02-17T09:10:02.570Z,29.37
2019-02-17T09:15:09.802Z,26.00
2019-02-17T09:20:17.858Z,24.30
2019-02-17T09:25:22.598Z,22.67
2019-02-17T09:30:28.487Z,19.90
2019-02-17T09:35:33.320Z,20.10
2019-02-17T09:40:39.814Z,17.53
2019-02-17T09:45:44.651Z,18.13
2019-02-17T09:50:50.519Z,30.70
2019-02-17T09:55:55.868Z,20.23
2019-02-17T10:01:00.729Z,29.70
2019-02-17T10:06:06.277Z,30.10
2019-02-17T10:11:12.305Z,19.03
2019-02-17T10:16:17.018Z,39.03
2019-02-17T10:21:23.273Z,19.60
2019-02-17T10:26:30.678Z,20.43
2019-02-17T10:31:35.506Z,22.00
2019-02-17T10:36:40.264Z,20.87
2019-02-17T10:41:46.122Z,12.10
2019-02-17T10:46:50.987Z,16.23
2019-02-17T10:51:55.738Z,13.10
2019-02-17T10:57:00.785Z,16.97
2019-02-17T11:02:05.514Z,17.67
2019-02-17T11:07:11.901Z,15.80
2019-02-17T11:12:16.642Z,15.33
2019-02-17T11:17:23.641Z,20.47
2019-02-17T11:22:28.889Z,15.30
2019-02-17T11:27:34.847Z,30.97
2019-02-17T11:32:41.244Z,17.13
2019-02-17T11:37:47.735Z,16.07
2019-02-17T11:42:52.578Z,15.27
2019-02-17T11:47:57.323Z,14.33
2019-02-17T11:53:03.701Z,16.90
2019-02-17T11:58:09.795Z,12.13
2019-02-17T12:03:14.724Z,13.33
2019-02-17T12:08:19.680Z,19.47
2019-02-17T12:13:26.465Z,15.03
2019-02-17T12:18:33.561Z,10.73
2019-02-17T12:23:44.040Z,13.20
2019-02-17T12:29:02.557Z,15.57
2019-02-17T12:34:07.216Z,12.00
2019-02-17T12:39:11.893Z,15.27
2019-02-17T12:44:16.738Z,13.70
2019-02-17T12:49:21.642Z,17.77
2019-02-17T12:54:29.377Z,12.17
2019-02-17T12:59:36.271Z,10.37
2019-02-17T13:04:41.786Z,12.40
2019-02-17T13:09:46.496Z,10.47
2019-02-17T13:14:54.820Z,44.27
2019-02-17T13:20:00.996Z,13.10
2019-02-17T13:25:09.038Z,47.93
2019-02-17T13:30:23.335Z,16.37
2019-02-17T13:35:28.408Z,26.70
2019-02-17T13:40:33.183Z,15.43
2019-02-17T13:45:38.650Z,12.13
2019-02-17T13:50:43.404Z,33.90
2019-02-17T13:55:49.283Z,9.83
2019-02-17T14:00:54.619Z,19.10
2019-02-17T14:05:59.927Z,18.53
2019-02-17T14:11:05.067Z,15.17
2019-02-17T14:16:11.411Z,12.77
2019-02-17T14:21:17.946Z,17.13
2019-02-17T14:26:23.304Z,20.30
2019-02-17T14:31:28.632Z,10.00
2019-02-17T14:36:33.937Z,46.03
2019-02-17T14:41:41.383Z,28.70
2019-02-17T14:46:46.902Z,52.23
2019-02-17T14:51:51.880Z,47.97
2019-02-17T14:56:56.924Z,31.57
2019-02-17T15:02:02.284Z,20.70
2019-02-17T15:07:12.017Z,29.20
2019-02-17T15:12:19.045Z,23.93
2019-02-17T15:17:25.019Z,16.87
2019-02-17T15:22:29.877Z,14.83
2019-02-17T15:27:35.861Z,13.40
2019-02-17T15:32:40.688Z,13.70
2019-02-17T15:37:45.632Z,13.73
2019-02-17T15:42:50.373Z,9.60
2019-02-17T15:47:59.835Z,8.40
2019-02-17T15:53:04.995Z,20.93
2019-02-17T15:58:10.281Z,53.50
2019-02-17T16:03:15.308Z,33.77
2019-02-17T16:08:21.664Z,25.60
2019-02-17T16:13:26.517Z,8.90
2019-02-17T16:18:32.514Z,7.03
2019-02-17T16:23:37.443Z,5.87
2019-02-17T16:28:43.717Z,5.47
2019-02-17T16:33:48.461Z,6.60
2019-02-17T16:38:53.454Z,13.93
2019-02-17T16:43:59.789Z,19.03
2019-02-17T16:49:07.701Z,16.07
2019-02-17T16:54:12.811Z,15.50
2019-02-17T16:59:17.607Z,22.00
2019-02-17T17:04:22.963Z,32.50
2019-02-17T17:09:27.902Z,28.23
2019-02-17T17:14:32.743Z,23.00
2019-02-17T17:19:37.972Z,19.83
2019-02-17T17:24:42.952Z,23.50
2019-02-17T17:29:47.801Z,19.57
2019-02-17T17:34:58.823Z,20.23
2019-02-17T17:40:00.214Z,20.93
2019-02-17T17:45:16.101Z,24.80
2019-02-17T17:50:22.464Z,25.83
2019-02-17T17:55:29.535Z,23.43
2019-02-17T18:00:37.152Z,19.67
2019-02-17T18:05:41.887Z,18.30
2019-02-17T18:10:46.834Z,16.53
2019-02-17T18:15:51.804Z,17.87
2019-02-17T18:20:56.842Z,20.10
2019-02-17T18:26:01.579Z,20.50
2019-02-17T18:31:06.518Z,19.13
2019-02-17T18:36:11.510Z,25.97
2019-02-17T18:41:16.299Z,23.40
2019-02-17T18:46:20.971Z,25.10
2019-02-17T18:51:26.533Z,21.07
2019-02-17T18:56:32.038Z,22.70
2019-02-17T19:01:36.852Z,19.23
2019-02-17T19:06:42.588Z,23.37
2019-02-17T19:11:47.535Z,15.27
2019-02-17T19:16:52.487Z,16.90
2019-02-17T19:21:58.511Z,19.90
2019-02-17T19:27:03.278Z,22.93
2019-02-17T19:32:10.637Z,23.03
2019-02-17T19:37:15.692Z,24.87
2019-02-17T19:42:20.613Z,26.23
2019-02-17T19:47:27.207Z,30.53
2019-02-17T19:52:33.783Z,21.80
2019-02-17T19:57:40.477Z,23.93
2019-02-17T20:02:50.116Z,27.93
2019-02-17T20:07:54.785Z,24.47
2019-02-17T20:12:59.810Z,24.37
2019-02-17T20:18:04.446Z,23.73
2019-02-17T20:23:09.192Z,25.40
2019-02-17T20:28:13.830Z,33.63
2019-02-17T20:33:18.785Z,25.23
2019-02-17T20:38:24.110Z,26.17
2019-02-17T20:43:30.212Z,23.17
2019-02-17T20:48:36.484Z,34.73
2019-02-17T20:53:41.259Z,26.57
2019-02-17T20:58:47.609Z,26.23
2019-02-17T21:03:53.170Z,21.23
2019-02-17T21:08:58.478Z,19.03
2019-02-17T21:14:03.588Z,18.27
2019-02-17T21:19:08.220Z,17.13
2019-02-17T21:24:14.399Z,16.53
2019-02-17T21:29:19.242Z,18.43
2019-02-17T21:34:24.291Z,20.90
2019-02-17T21:39:29.853Z,19.67
2019-02-17T21:44:35.546Z,17.27
2019-02-17T21:49:40.367Z,21.13
2019-02-17T21:54:45.113Z,19.80
2019-02-17T21:59:49.849Z,19.83
2019-02-17T22:04:54.693Z,20.47
2019-02-17T22:10:00.758Z,21.03
2019-02-17T22:15:09.480Z,19.40
2019-02-17T22:20:15.001Z,15.17
2019-02-17T22:25:19.917Z,17.23
2019-02-17T22:30:24.656Z,20.03
2019-02-17T22:35:29.395Z,18.97
2019-02-17T22:40:34.149Z,21.10
2019-02-17T22:45:38.876Z,21.03
2019-02-17T22:50:43.727Z,21.23
2019-02-17T22:55:48.578Z,19.70
2019-02-17T23:01:03.544Z,19.07
2019-02-17T23:06:09.931Z,18.93
2019-02-17T23:11:15.083Z,17.97
2019-02-17T23:16:19.867Z,19.03
2019-02-17T23:21:24.680Z,18.43
2019-02-17T23:26:29.426Z,18.93
2019-02-17T23:31:35.177Z,18.10
2019-02-17T23:36:40.128Z,14.77
2019-02-17T23:41:44.877Z,15.03
2019-02-17T23:46:49.523Z,15.47
2019-02-17T23:51:54.357Z,18.47
2019-02-17T23:57:00.430Z,17.30
